Time;durP1;ratioP1;P1;durP2;ratioP2;P2;SDS_P1;SDS_P2;PMS_P1;PMS_P2;Temp;Humidity;BMP_temperature;BMP_pressure;BME280_temperature;BME280_humidity;BME280_pressure;Samples;Min_cycle;Max_cycle;Signal;HPM_P1;HPM_P2
2021/08/07 00:00:20;;;;;;;24.63;17.30;;;;;;;23.86;79.07;99836.33;1836835;78;21046;-64
2021/08/07 00:02:49;;;;;;;30.60;18.60;;;;;;;23.83;79.08;99835.83;1836981;78;21018;-64
2021/08/07 00:05:18;;;;;;;31.02;20.23;;;;;;;23.85;78.65;99825.77;1840427;76;21046;-64
2021/08/07 00:07:46;;;;;;;34.35;21.12;;;;;;;23.83;78.64;99827.28;1874778;76;21089;-64
2021/08/07 00:10:17;;;;;;;32.28;22.05;;;;;;;23.84;78.55;99825.42;1874763;76;21078;-65
2021/08/07 00:12:46;;;;;;;30.23;19.62;;;;;;;23.83;78.77;99821.05;1874793;76;21046;-65
2021/08/07 00:15:15;;;;;;;31.40;22.52;;;;;;;23.80;78.90;99820.89;1874689;76;21050;-65
2021/08/07 00:17:44;;;;;;;30.12;19.67;;;;;;;23.76;79.45;99816.83;1874770;76;21159;-65
2021/08/07 00:20:13;;;;;;;23.07;16.23;;;;;;;23.71;79.37;99823.20;1874751;76;21586;-65
2021/08/07 00:22:41;;;;;;;25.35;16.62;;;;;;;23.68;79.11;99827.56;1875010;76;21050;-65
2021/08/07 00:25:11;;;;;;;24.00;16.50;;;;;;;23.68;78.88;99826.22;1874775;76;21038;-65
2021/08/07 00:27:40;;;;;;;26.15;17.07;;;;;;;23.65;78.78;99825.23;1874785;76;21113;-67
2021/08/07 00:30:10;;;;;;;24.87;17.27;;;;;;;23.60;79.02;99823.54;1874976;76;21030;-65
2021/08/07 00:32:41;;;;;;;28.70;18.30;;;;;;;23.56;79.25;99822.20;1874780;76;21030;-65
2021/08/07 00:35:11;;;;;;;28.38;18.35;;;;;;;23.50;79.78;99819.67;1874942;76;21030;-65
2021/08/07 00:37:40;;;;;;;24.75;17.23;;;;;;;23.43;79.91;99820.00;1874727;76;21034;-65
2021/08/07 00:40:13;;;;;;;24.80;16.93;;;;;;;23.42;79.66;99811.08;1855253;76;21610;-66
2021/08/07 00:42:42;;;;;;;24.27;15.90;;;;;;;23.42;79.43;99809.73;1874847;76;21024;-65
2021/08/07 00:45:16;;;;;;;29.50;16.93;;;;;;;23.42;79.14;99813.77;1872777;76;21073;-65
2021/08/07 00:47:46;;;;;;;24.63;16.12;;;;;;;23.40;79.02;99804.20;1874699;76;21128;-65
2021/08/07 00:50:16;;;;;;;22.50;16.93;;;;;;;23.40;78.93;99806.38;1874758;76;21074;-65
2021/08/07 00:52:46;;;;;;;24.55;18.20;;;;;;;23.39;79.34;99806.06;1874636;76;21027;-65
2021/08/07 00:55:17;;;;;;;28.90;18.82;;;;;;;23.37;79.67;99802.70;1874465;76;21544;-65
2021/08/07 00:57:46;;;;;;;23.70;16.85;;;;;;;23.35;79.89;99802.03;1874802;76;21066;-65
2021/08/07 01:00:16;;;;;;;26.40;17.95;;;;;;;23.32;79.55;99798.32;1874319;76;21078;-65
2021/08/07 01:02:48;;;;;;;22.98;17.30;;;;;;;23.29;79.41;99795.95;1874744;76;21083;-65
2021/08/07 01:05:22;;;;;;;32.33;18.80;;;;;;;23.24;79.58;99793.78;1873470;76;21132;-65
2021/08/07 01:08:18;;;;;;;30.82;20.32;;;;;;;23.22;79.99;99798.48;1867565;76;21164;-65
2021/08/07 01:10:54;;;;;;;28.67;19.17;;;;;;;23.19;80.57;99792.59;1865995;76;21122;-65
2021/08/07 01:13:26;;;;;;;34.63;20.10;;;;;;;23.16;80.48;99799.11;1865469;76;21586;-65
2021/08/07 01:16:03;;;;;;;33.93;21.83;;;;;;;23.16;80.41;99784.86;1866621;76;21054;-65
2021/08/07 01:18:36;;;;;;;40.98;26.48;;;;;;;23.13;80.51;99785.53;1866072;77;21749;-64
2021/08/07 01:21:08;;;;;;;28.32;20.23;;;;;;;23.17;80.44;99786.55;1866287;77;21106;-65
2021/08/07 01:23:52;;;;;;;28.92;20.62;;;;;;;23.11;80.75;99788.88;1866006;76;21102;-65
2021/08/07 01:26:32;;;;;;;31.60;22.22;;;;;;;23.09;80.85;99787.34;1866212;77;21086;-65
2021/08/07 01:29:04;;;;;;;23.65;16.62;;;;;;;23.08;80.86;99792.40;1864039;76;21162;-65
2021/08/07 01:31:33;;;;;;;24.90;16.25;;;;;;;23.06;80.65;99794.41;1866421;77;21043;-65
2021/08/07 01:34:03;;;;;;;26.77;18.95;;;;;;;23.04;80.68;99796.42;1866116;76;21627;-65
2021/08/07 01:36:35;;;;;;;21.37;16.40;;;;;;;23.02;80.78;99790.31;1864490;76;21091;-65
2021/08/07 01:39:04;;;;;;;22.65;15.15;;;;;;;23.01;80.61;99798.88;1866220;77;21121;-65
2021/08/07 01:41:33;;;;;;;24.35;16.55;;;;;;;22.99;80.43;99797.38;1866242;77;21540;-65
2021/08/07 01:44:13;;;;;;;24.07;15.65;;;;;;;22.97;80.28;99800.73;1847135;77;21065;-65
2021/08/07 01:46:48;;;;;;;25.45;16.05;;;;;;;22.91;80.24;99799.54;1866255;76;21086;-65
2021/08/07 01:49:22;;;;;;;32.63;17.10;;;;;;;22.85;80.31;99786.75;1866313;77;21612;-65
2021/08/07 01:52:04;;;;;;;21.10;16.17;;;;;;;22.82;80.39;99801.34;1866140;76;21095;-65
2021/08/07 01:54:38;;;;;;;26.12;17.07;;;;;;;22.78;80.59;99797.79;1865313;76;21625;-65
2021/08/07 01:57:11;;;;;;;22.50;16.57;;;;;;;22.77;80.62;99792.10;1865970;76;21156;-65
2021/08/07 01:59:43;;;;;;;23.38;17.75;;;;;;;22.77;80.60;99794.27;1866570;76;21085;-65
2021/08/07 02:02:14;;;;;;;25.70;17.67;;;;;;;22.77;80.45;99796.13;1866279;76;21539;-64
2021/08/07 02:04:48;;;;;;;25.55;17.30;;;;;;;22.72;80.96;99797.45;1865811;76;21165;-64
2021/08/07 02:07:18;;;;;;;23.02;16.25;;;;;;;22.73;80.95;99792.41;1868060;76;21097;-64
2021/08/07 02:09:49;;;;;;;22.48;17.75;;;;;;;22.74;80.87;99798.61;1874549;76;21062;-66
2021/08/07 02:12:19;;;;;;;24.02;16.02;;;;;;;22.72;81.03;99799.28;1874779;76;21070;-65
2021/08/07 02:14:51;;;;;;;26.40;16.85;;;;;;;22.71;81.10;99798.95;1874279;76;21143;-65
2021/08/07 02:17:21;;;;;;;19.85;15.40;;;;;;;22.70;81.00;99802.15;1874866;76;21509;-65
2021/08/07 02:19:52;;;;;;;24.10;17.42;;;;;;;22.73;80.97;99803.66;1874656;76;21054;-65
2021/08/07 02:22:21;;;;;;;28.52;16.77;;;;;;;22.72;80.97;99800.14;1874752;76;21490;-65
2021/08/07 02:24:50;;;;;;;25.97;18.15;;;;;;;22.71;81.10;99802.98;1874730;76;21484;-65
2021/08/07 02:27:24;;;;;;;29.72;17.17;;;;;;;22.68;81.19;99796.08;1872712;76;21065;-65
2021/08/07 02:29:53;;;;;;;22.48;16.90;;;;;;;22.66;81.18;99807.47;1874809;76;21477;-65
2021/08/07 02:32:22;;;;;;;23.87;17.20;;;;;;;22.64;81.13;99815.36;1874820;76;21062;-65
2021/08/07 02:34:53;;;;;;;24.90;17.60;;;;;;;22.63;81.27;99810.98;1874107;76;21042;-65
2021/08/07 02:37:25;;;;;;;25.15;16.40;;;;;;;22.62;81.27;99810.66;1873789;76;21131;-65
2021/08/07 02:39:55;;;;;;;27.58;18.17;;;;;;;22.60;81.39;99812.66;1874711;76;21042;-65
2021/08/07 02:42:25;;;;;;;26.60;17.37;;;;;;;22.62;81.27;99806.12;1874720;76;21066;-65
2021/08/07 02:44:56;;;;;;;36.23;26.55;;;;;;;22.66;81.10;99807.98;1874706;76;21078;-64
2021/08/07 02:47:27;;;;;;;32.70;22.42;;;;;;;22.68;81.35;99812.17;1874721;76;21179;-64
2021/08/07 02:49:57;;;;;;;25.37;17.70;;;;;;;22.70;81.12;99818.25;1874096;76;21508;-64
2021/08/07 02:52:27;;;;;;;23.52;16.95;;;;;;;22.71;81.12;99815.89;1874679;76;21113;-64
2021/08/07 02:54:57;;;;;;;27.15;18.70;;;;;;;22.72;81.05;99812.22;1874704;76;21532;-65
2021/08/07 02:57:26;;;;;;;29.23;21.17;;;;;;;22.72;81.22;99810.87;1874689;76;21093;-64
2021/08/07 02:59:55;;;;;;;43.90;37.17;;;;;;;22.75;80.95;99815.90;1874606;76;21039;-65
2021/08/07 03:02:24;;;;;;;37.60;29.50;;;;;;;22.77;81.23;99811.72;1874682;76;21149;-64
2021/08/07 03:04:52;;;;;;;30.32;23.42;;;;;;;22.75;81.13;99818.58;1874695;76;21022;-64
2021/08/07 03:07:22;;;;;;;24.70;17.40;;;;;;;22.79;81.06;99826.32;1873334;76;21066;-66
2021/08/07 03:09:51;;;;;;;25.68;17.15;;;;;;;22.81;80.92;99821.62;1836761;78;21161;-64
2021/08/07 03:12:20;;;;;;;22.70;15.55;;;;;;;22.82;80.72;99815.27;1836876;78;21047;-65
2021/08/07 03:14:49;;;;;;;21.95;15.32;;;;;;;22.80;80.55;99819.96;1836884;78;21074;-64
2021/08/07 03:17:19;;;;;;;26.90;16.20;;;;;;;22.79;80.38;99816.42;1837042;78;21066;-64
2021/08/07 03:19:49;;;;;;;23.85;16.90;;;;;;;22.80;80.33;99819.45;1836849;78;21480;-62
2021/08/07 03:22:18;;;;;;;23.60;15.30;;;;;;;22.80;80.50;99810.58;1836963;78;21144;-61
2021/08/07 03:24:47;;;;;;;21.57;16.10;;;;;;;22.82;80.57;99815.27;1836851;77;21508;-65
2021/08/07 03:27:16;;;;;;;24.67;16.48;;;;;;;22.86;80.49;99815.28;1836906;77;21544;-65
2021/08/07 03:29:46;;;;;;;24.07;14.35;;;;;;;22.90;80.35;99809.92;1836523;78;21086;-65
2021/08/07 03:32:17;;;;;;;20.92;14.47;;;;;;;22.95;80.21;99818.33;1836893;78;21101;-65
2021/08/07 03:34:46;;;;;;;24.15;13.68;;;;;;;22.99;79.94;99817.00;1836886;78;21077;-64
2021/08/07 03:37:15;;;;;;;21.93;15.10;;;;;;;23.04;79.71;99824.61;1836810;78;21058;-65
2021/08/07 03:39:45;;;;;;;22.13;14.98;;;;;;;23.08;79.63;99818.73;1835760;78;21191;-65
2021/08/07 03:42:14;;;;;;;28.73;18.62;;;;;;;23.16;79.47;99823.80;1836871;78;21501;-64
2021/08/07 03:44:43;;;;;;;34.45;19.37;;;;;;;23.19;79.30;99828.34;1837027;78;21043;-64
2021/08/07 03:47:14;;;;;;;29.80;18.85;;;;;;;23.26;79.10;99832.56;1836965;78;21039;-64
2021/08/07 03:49:44;;;;;;;24.98;17.02;;;;;;;23.28;78.97;99835.41;1836762;78;21545;-66
2021/08/07 03:52:13;;;;;;;24.57;16.25;;;;;;;23.31;78.84;99836.91;1836824;78;21234;-65
2021/08/07 03:54:42;;;;;;;24.77;15.90;;;;;;;23.35;78.64;99827.55;1818334;78;21079;-65
2021/08/07 03:57:11;;;;;;;24.37;14.65;;;;;;;23.40;78.56;99817.63;1836880;78;21050;-65
2021/08/07 03:59:39;;;;;;;19.90;14.18;;;;;;;23.42;78.56;99824.50;1836902;78;21046;-65
2021/08/07 04:02:09;;;;;;;23.87;13.30;;;;;;;23.44;78.46;99823.87;1836851;78;21070;-64
2021/08/07 04:04:38;;;;;;;19.42;14.25;;;;;;;23.50;78.35;99824.53;1836791;78;21161;-65
2021/08/07 04:07:06;;;;;;;19.57;15.13;;;;;;;23.49;78.30;99826.88;1836976;78;21101;-63
2021/08/07 04:09:37;;;;;;;20.10;14.70;;;;;;;23.42;78.39;99825.84;1835650;76;21149;-64
2021/08/07 04:12:06;;;;;;;18.98;15.05;;;;;;;23.41;78.40;99834.93;1836870;78;21070;-64
2021/08/07 04:14:38;;;;;;;20.20;14.00;;;;;;;23.44;78.30;99832.41;1836898;78;21526;-63
2021/08/07 04:17:05;;;;;;;21.07;13.68;;;;;;;23.51;78.10;99830.23;1836676;78;21044;-64
2021/08/07 04:19:34;;;;;;;25.62;14.60;;;;;;;23.58;77.94;99845.70;1836879;77;21039;-64
2021/08/07 04:22:05;;;;;;;20.60;13.60;;;;;;;23.66;77.76;99840.33;1836059;78;21093;-62
2021/08/07 04:24:35;;;;;;;22.15;13.98;;;;;;;23.76;77.66;99840.19;1835416;78;21574;-63
2021/08/07 04:27:05;;;;;;;22.22;15.23;;;;;;;23.88;77.51;99829.45;1841126;78;21014;-68
2021/08/07 04:29:34;;;;;;;29.77;15.70;;;;;;;24.06;77.16;99834.66;1844959;77;21046;-67
2021/08/07 04:32:03;;;;;;;24.05;13.35;;;;;;;24.28;77.01;99831.25;1840054;78;21074;-68
2021/08/07 04:34:32;;;;;;;22.30;14.40;;;;;;;24.48;76.70;99833.58;1811573;78;21065;-68
2021/08/07 04:37:03;;;;;;;49.67;22.75;;;;;;;24.70;76.39;99845.97;1825298;78;21541;-71
2021/08/07 04:39:32;;;;;;;84.13;35.95;;;;;;;24.84;75.82;99852.84;1836823;77;21034;-68
2021/08/07 04:42:02;;;;;;;48.55;23.35;;;;;;;24.99;75.50;99834.10;1817144;77;21091;-68
2021/08/07 04:44:32;;;;;;;40.20;20.25;;;;;;;25.03;74.69;99880.38;1802378;79;21067;-68
2021/08/07 04:47:01;;;;;;;26.12;15.35;;;;;;;25.13;74.59;99808.77;1822255;78;21446;-64
2021/08/07 04:49:31;;;;;;;22.13;13.13;;;;;;;25.22;74.21;99852.98;1836743;78;21473;-64
2021/08/07 04:52:00;;;;;;;19.82;12.70;;;;;;;25.23;73.67;99822.84;1820711;77;21575;-64
2021/08/07 04:54:31;;;;;;;18.25;11.78;;;;;;;25.28;73.52;99839.87;1808695;78;21079;-64
2021/08/07 04:57:00;;;;;;;18.48;11.70;;;;;;;25.22;73.17;99842.73;1824929;78;21116;-63
2021/08/07 04:59:28;;;;;;;17.92;11.88;;;;;;;25.20;72.97;99840.72;1836954;78;21026;-63
2021/08/07 05:01:58;;;;;;;17.17;11.73;;;;;;;25.21;72.96;99859.89;1820919;78;21049;-65
2021/08/07 05:04:27;;;;;;;14.23;10.63;;;;;;;25.24;72.88;99855.55;1808917;79;21096;-65
2021/08/07 05:06:55;;;;;;;17.98;12.20;;;;;;;25.33;72.80;99854.48;1824001;78;21117;-65
2021/08/07 05:09:24;;;;;;;15.95;10.90;;;;;;;25.60;72.67;99860.36;1846534;76;21070;-64
2021/08/07 05:11:55;;;;;;;13.38;10.98;;;;;;;25.89;72.40;99856.95;1872506;76;21540;-64
2021/08/07 05:14:24;;;;;;;16.67;11.05;;;;;;;26.07;71.88;99862.58;1874722;76;21038;-64
2021/08/07 05:16:52;;;;;;;19.45;11.95;;;;;;;26.15;71.39;99860.66;1874615;76;21605;-64
2021/08/07 05:19:22;;;;;;;20.08;12.03;;;;;;;26.20;71.06;99854.17;1874643;76;21069;-65
2021/08/07 05:21:51;;;;;;;24.27;12.78;;;;;;;26.24;70.74;99855.16;1874640;76;21086;-64
2021/08/07 05:24:20;;;;;;;20.90;12.37;;;;;;;26.32;70.51;99850.53;1874757;76;21054;-64
2021/08/07 05:26:49;;;;;;;20.00;12.53;;;;;;;26.46;70.32;99855.61;1874602;76;21540;-63
2021/08/07 05:29:18;;;;;;;23.70;11.88;;;;;;;26.68;69.84;99857.09;1874652;76;21187;-64
2021/08/07 05:31:47;;;;;;;24.05;13.62;;;;;;;26.98;69.46;99862.48;1891699;75;21055;-64
2021/08/07 05:34:15;;;;;;;114.30;54.38;;;;;;;27.36;69.10;99866.41;1910352;75;21607;-65
2021/08/07 05:36:44;;;;;;;23.25;14.90;;;;;;;27.85;68.50;99868.34;1895424;75;21038;-67
2021/08/07 05:39:14;;;;;;;26.77;14.38;;;;;;;28.27;67.59;99869.36;1878066;76;21482;-66
2021/08/07 05:41:43;;;;;;;22.37;13.08;;;;;;;28.60;66.31;99862.84;1876411;76;21512;-64
2021/08/07 05:44:13;;;;;;;59.80;29.60;;;;;;;28.92;65.34;99862.39;1874727;76;21038;-66
2021/08/07 05:46:41;;;;;;;71.30;33.18;;;;;;;29.26;64.91;99861.53;1890153;75;21500;-67
2021/08/07 05:49:10;;;;;;;22.98;14.20;;;;;;;29.52;63.88;99856.70;1910402;75;21493;-65
2021/08/07 05:51:40;;;;;;;31.82;17.07;;;;;;;29.57;62.61;99854.20;1896501;75;21128;-66
2021/08/07 05:54:09;;;;;;;33.80;18.12;;;;;;;29.39;62.46;99852.60;1878031;76;21532;-66
2021/08/07 05:56:38;;;;;;;34.67;18.40;;;;;;;29.21;62.60;99858.59;1877947;76;21044;-66
2021/08/07 05:59:07;;;;;;;52.15;28.17;;;;;;;29.05;63.01;99851.63;1877814;76;21107;-67
2021/08/07 06:01:36;;;;;;;31.20;15.32;;;;;;;29.03;63.42;99853.69;1876542;76;21120;-66
2021/08/07 06:04:05;;;;;;;37.17;20.32;;;;;;;29.07;63.66;99852.27;1874805;76;21058;-66
2021/08/07 06:06:33;;;;;;;35.38;17.73;;;;;;;29.08;63.73;99844.44;1874496;76;21545;-66
2021/08/07 06:09:02;;;;;;;23.75;13.13;;;;;;;29.11;63.79;99852.17;1874700;76;21603;-66
2021/08/07 06:11:31;;;;;;;28.07;14.55;;;;;;;29.10;63.73;99850.48;1881886;76;21559;-67
2021/08/07 06:14:00;;;;;;;19.90;10.28;;;;;;;29.02;63.91;99848.80;1854538;76;21460;-66
2021/08/07 06:16:30;;;;;;;18.02;12.55;;;;;;;29.03;63.80;99850.97;1883843;75;21066;-66
2021/08/07 06:19:00;;;;;;;16.57;11.05;;;;;;;28.99;63.74;99842.41;1883318;76;21504;-66
2021/08/07 06:21:29;;;;;;;21.55;10.50;;;;;;;28.92;63.78;99842.07;1883739;76;21058;-66
2021/08/07 06:23:58;;;;;;;31.25;12.85;;;;;;;28.87;64.00;99844.05;1883838;76;21080;-66
2021/08/07 06:26:30;;;;;;;17.92;9.60;;;;;;;28.83;64.10;99847.67;1883342;76;21528;-66
2021/08/07 06:29:01;;;;;;;19.52;12.53;;;;;;;28.84;63.85;99856.10;1883995;76;21053;-66
2021/08/07 06:31:30;;;;;;;18.25;11.08;;;;;;;28.86;63.87;99858.09;1883747;76;21543;-66
2021/08/07 06:33:59;;;;;;;14.07;10.20;;;;;;;28.92;63.65;99851.55;1883854;76;21129;-66
2021/08/07 06:36:28;;;;;;;13.22;9.38;;;;;;;29.01;63.22;99856.63;1883881;76;21171;-66
2021/08/07 06:38:58;;;;;;;20.08;11.53;;;;;;;29.12;62.67;99859.77;1883720;76;21657;-66
2021/08/07 06:41:26;;;;;;;21.55;10.70;;;;;;;29.24;62.11;99869.03;1883946;76;21086;-66
2021/08/07 06:43:57;;;;;;;19.85;12.13;;;;;;;29.35;62.09;99873.04;1881895;76;21117;-66
2021/08/07 06:46:33;;;;;;;18.75;9.83;;;;;;;29.55;61.76;99867.14;1882643;76;21090;-66
2021/08/07 06:49:03;;;;;;;18.85;8.98;;;;;;;29.76;61.16;99875.65;1883971;76;21539;-68
2021/08/07 06:51:31;;;;;;;20.30;10.80;;;;;;;29.90;60.35;99880.59;1884171;76;21131;-66
2021/08/07 06:54:01;;;;;;;19.17;11.05;;;;;;;29.96;59.40;99881.10;1883963;76;21580;-66
2021/08/07 06:56:31;;;;;;;18.48;10.82;;;;;;;29.97;59.05;99888.22;1883905;76;21069;-66
2021/08/07 06:59:02;;;;;;;23.02;9.53;;;;;;;29.98;58.72;99880.37;1883900;76;21071;-66
2021/08/07 07:01:31;;;;;;;19.90;10.88;;;;;;;29.99;58.72;99879.84;1884002;76;21500;-66
2021/08/07 07:03:59;;;;;;;15.58;9.53;;;;;;;30.00;58.41;99876.09;1883987;76;21242;-67
2021/08/07 07:06:28;;;;;;;15.08;9.05;;;;;;;30.05;58.17;99889.05;1884054;76;21183;-66
2021/08/07 07:08:57;;;;;;;20.05;9.60;;;;;;;30.09;58.15;99880.80;1883990;76;21071;-66
2021/08/07 07:11:26;;;;;;;19.02;9.43;;;;;;;30.19;58.18;99877.98;1875412;76;21156;-66
2021/08/07 07:13:55;;;;;;;18.87;10.25;;;;;;;30.32;58.01;99883.08;1866352;77;21094;-66
2021/08/07 07:16:24;;;;;;;26.97;13.32;;;;;;;30.42;57.56;99884.06;1866238;77;21109;-67
2021/08/07 07:18:53;;;;;;;16.27;10.45;;;;;;;30.50;57.56;99876.50;1866485;77;21010;-67
2021/08/07 07:21:23;;;;;;;18.70;9.30;;;;;;;30.64;57.45;99886.02;1866308;77;21509;-66
2021/08/07 07:23:53;;;;;;;15.30;9.20;;;;;;;30.66;56.97;99888.81;1866242;76;21144;-66
2021/08/07 07:26:27;;;;;;;11.93;9.35;;;;;;;30.70;56.83;99892.77;1866369;77;21039;-66
2021/08/07 07:28:52;;;;;;;15.08;8.60;;;;;;;30.70;56.41;99888.70;1865826;76;21038;-66
2021/08/07 07:31:21;;;;;;;18.95;8.48;;;;;;;30.71;56.11;99890.88;1866323;77;21050;-67
2021/08/07 07:33:50;;;;;;;13.05;9.15;;;;;;;30.76;55.86;99894.63;1866326;77;21066;-66
2021/08/07 07:36:19;;;;;;;12.10;8.73;;;;;;;30.87;55.89;99887.70;1866534;77;21528;-66
2021/08/07 07:38:48;;;;;;;14.15;8.68;;;;;;;30.94;55.43;99886.37;1866303;76;21090;-66
2021/08/07 07:41:17;;;;;;;15.13;8.75;;;;;;;30.98;55.28;99882.16;1866238;76;21116;-67
2021/08/07 07:43:47;;;;;;;14.85;8.98;;;;;;;31.05;55.06;99885.70;1866429;77;21043;-66
2021/08/07 07:46:15;;;;;;;15.70;7.95;;;;;;;31.15;54.89;99882.01;1866299;77;21591;-66
2021/08/07 07:48:44;;;;;;;13.00;8.00;;;;;;;31.29;54.66;99880.05;1866423;77;21022;-66
2021/08/07 07:51:15;;;;;;;18.95;8.18;;;;;;;31.46;54.11;99873.57;1866111;76;21099;-66
2021/08/07 07:53:43;;;;;;;11.73;6.40;;;;;;;31.77;53.51;99881.48;1866348;76;21481;-67
2021/08/07 07:56:12;;;;;;;9.98;5.78;;;;;;;32.15;52.16;99877.88;1866279;76;21536;-66
2021/08/07 07:58:42;;;;;;;12.73;6.53;;;;;;;32.53;50.85;99864.61;1866267;77;21520;-66
2021/08/07 08:01:10;;;;;;;9.43;6.85;;;;;;;32.84;50.02;99862.84;1847039;77;21446;-66
2021/08/07 08:03:40;;;;;;;9.65;5.50;;;;;;;33.09;49.55;99863.59;1866211;77;21102;-66
2021/08/07 08:06:09;;;;;;;10.28;5.78;;;;;;;33.22;47.37;99857.16;1866301;76;21563;-66
2021/08/07 08:08:39;;;;;;;7.12;5.35;;;;;;;33.38;47.17;99855.66;1866234;77;21149;-66
2021/08/07 08:11:08;;;;;;;6.92;4.65;;;;;;;33.57;45.92;99855.61;1864668;76;21508;-66
2021/08/07 08:13:38;;;;;;;7.55;4.92;;;;;;;33.64;44.76;99855.86;1836858;78;21038;-66
2021/08/07 08:16:07;;;;;;;9.80;4.67;;;;;;;34.06;43.69;99860.43;1837012;78;21050;-65
2021/08/07 08:18:37;;;;;;;10.38;4.53;;;;;;;34.46;42.81;99854.30;1836994;78;21528;-66
2021/08/07 08:21:06;;;;;;;7.30;4.40;;;;;;;34.64;40.96;99859.31;1836772;78;21454;-66
2021/08/07 08:23:35;;;;;;;8.28;4.05;;;;;;;34.68;40.94;99864.63;1836996;78;21569;-66
2021/08/07 08:26:04;;;;;;;10.80;4.53;;;;;;;34.84;40.28;99858.41;1836831;78;21501;-66
2021/08/07 08:28:33;;;;;;;7.70;5.05;;;;;;;35.17;39.90;99857.74;1836857;78;21528;-66
2021/08/07 08:31:03;;;;;;;12.85;4.60;;;;;;;36.22;37.86;99849.75;1836827;78;21066;-66
2021/08/07 08:33:32;;;;;;;9.28;4.10;;;;;;;36.22;37.86;99849.75;1836688;78;21586;-66
2021/08/07 08:36:01;;;;;;;5.90;3.75;;;;;;;36.58;36.93;99857.14;1836953;78;21099;-66
2021/08/07 08:38:30;;;;;;;5.67;3.65;;;;;;;36.95;35.82;99857.36;1837031;78;21090;-66
2021/08/07 08:41:00;;;;;;;7.15;3.62;;;;;;;37.27;34.44;99851.98;1836843;78;21121;-66
2021/08/07 08:43:30;;;;;;;7.22;4.20;;;;;;;37.46;33.69;99844.75;1837080;78;21578;-66
2021/08/07 08:46:00;;;;;;;10.63;4.72;;;;;;;37.68;33.48;99842.52;1836726;78;21114;-66
2021/08/07 08:48:31;;;;;;;9.00;4.47;;;;;;;37.88;32.76;99841.31;1837002;78;21481;-66
2021/08/07 08:51:04;;;;;;;10.32;4.22;;;;;;;38.01;31.56;99823.00;1831335;78;21144;-65
2021/08/07 08:53:32;;;;;;;10.40;3.90;;;;;;;38.04;31.72;99826.60;1805318;79;21050;-63
2021/08/07 08:56:01;;;;;;;6.55;3.42;;;;;;;38.20;31.79;99838.56;1805252;78;21587;-64
2021/08/07 08:58:35;;;;;;;6.53;4.12;;;;;;;38.16;31.12;99831.95;1805141;79;21094;-71
2021/08/07 09:01:01;;;;;;;8.15;3.50;;;;;;;38.23;30.94;99839.39;1808925;78;21076;-65
2021/08/07 09:03:30;;;;;;;9.80;3.25;;;;;;;38.33;30.69;99850.17;1828684;78;21065;-65
2021/08/07 09:05:59;;;;;;;8.73;3.55;;;;;;;38.30;29.98;99851.55;1828725;78;21060;-65
2021/08/07 09:08:28;;;;;;;7.10;3.77;;;;;;;38.49;30.01;99856.04;1828638;78;21503;-64
2021/08/07 09:11:23;;;;;;;7.97;3.50;;;;;;;38.64;29.38;99851.20;1829600;77;21176;-63
2021/08/07 09:13:51;;;;;;;14.85;4.15;;;;;;;38.94;30.19;99861.52;1842340;77;21118;-62
2021/08/07 09:16:20;;;;;;;8.63;3.75;;;;;;;39.11;29.09;99866.83;1866003;76;21038;-62
2021/08/07 09:18:51;;;;;;;6.53;3.45;;;;;;;39.22;28.79;99870.45;1872429;77;21070;-62
2021/08/07 09:21:20;;;;;;;4.15;3.45;;;;;;;39.09;27.96;99870.41;1872018;76;21155;-63
2021/08/07 09:23:52;;;;;;;6.90;3.70;;;;;;;39.33;28.67;99867.17;1871719;76;21149;-62
2021/08/07 09:26:23;;;;;;;4.40;3.45;;;;;;;39.23;27.43;99850.62;1870700;76;21559;-62
2021/08/07 09:29:00;;;;;;;9.00;3.20;;;;;;;39.23;27.63;99855.57;1872179;76;21094;-62
2021/08/07 09:31:33;;;;;;;5.80;3.15;;;;;;;39.32;26.99;99871.02;1871360;76;21549;-62
2021/08/07 09:34:20;;;;;;;7.53;2.70;;;;;;;39.49;26.92;99855.65;1872339;77;21015;-62
2021/08/07 09:37:00;;;;;;;7.90;3.12;;;;;;;39.72;26.19;99871.66;1871860;76;21130;-62
2021/08/07 09:39:46;;;;;;;7.72;3.37;;;;;;;39.61;25.73;99867.80;1872092;76;21094;-62
2021/08/07 09:42:16;;;;;;;8.05;2.70;;;;;;;39.29;25.75;99866.04;1871652;76;21078;-62
2021/08/07 09:44:47;;;;;;;9.83;3.20;;;;;;;38.80;26.02;99876.31;1872378;76;21587;-62
2021/08/07 09:47:16;;;;;;;7.63;3.23;;;;;;;38.76;26.40;99860.62;1871236;76;21053;-62
2021/08/07 09:49:47;;;;;;;8.83;3.50;;;;;;;38.66;26.69;99864.16;1872255;76;21847;-62
2021/08/07 09:52:17;;;;;;;6.20;3.20;;;;;;;38.47;27.07;99870.61;1872342;76;21579;-62
2021/08/07 09:54:48;;;;;;;13.13;3.10;;;;;;;38.09;27.48;99871.72;1872215;77;21509;-63
2021/08/07 09:57:29;;;;;;;10.48;3.12;;;;;;;37.55;27.79;99871.20;1872360;77;21039;-63
2021/08/07 10:00:00;;;;;;;4.08;2.95;;;;;;;37.16;28.36;99869.98;1872139;76;21083;-62
2021/08/07 10:02:36;;;;;;;7.12;3.45;;;;;;;36.78;28.97;99868.41;1872299;76;21120;-62
2021/08/07 10:05:08;;;;;;;5.83;3.62;;;;;;;36.55;29.35;99861.75;1872207;77;21014;-63
2021/08/07 10:07:38;;;;;;;9.95;2.85;;;;;;;36.25;29.67;99858.86;1872305;76;21179;-62
2021/08/07 10:10:22;;;;;;;7.15;3.00;;;;;;;35.99;29.48;99863.91;1871892;76;21504;-63
2021/08/07 10:12:52;;;;;;;8.03;3.37;;;;;;;35.93;29.78;99870.36;1873042;76;21102;-70
2021/08/07 10:15:22;;;;;;;9.45;3.55;;;;;;;35.94;30.33;99875.59;1881564;76;21561;-65
2021/08/07 10:17:52;;;;;;;8.25;3.45;;;;;;;35.91;30.97;99881.59;1883622;76;21567;-64
2021/08/07 10:20:21;;;;;;;8.55;3.33;;;;;;;35.89;31.38;99877.41;1883924;76;21517;-64
2021/08/07 10:22:52;;;;;;;6.95;3.40;;;;;;;35.87;31.56;99879.58;1913990;75;21477;-62
2021/08/07 10:25:22;;;;;;;9.23;3.85;;;;;;;35.89;31.45;99882.38;1916790;75;21082;-73
2021/08/07 10:27:54;;;;;;;10.05;3.47;;;;;;;36.07;31.85;99881.83;1888670;75;21624;-69
2021/08/07 10:30:23;;;;;;;8.50;3.58;;;;;;;36.07;31.85;99881.83;1884006;76;21410;-68
2021/08/07 10:32:56;;;;;;;7.92;3.40;;;;;;;36.21;31.33;99882.34;1884110;75;21037;-66
2021/08/07 10:35:27;;;;;;;8.68;3.20;;;;;;;36.06;31.42;99876.89;1883817;76;21084;-66
2021/08/07 10:37:58;;;;;;;11.83;3.20;;;;;;;36.00;31.91;99873.77;1886558;75;21035;-68
2021/08/07 10:40:28;;;;;;;9.80;3.57;;;;;;;35.89;31.57;99871.94;1883913;76;21518;-64
2021/08/07 10:42:58;;;;;;;5.03;2.90;;;;;;;35.82;31.62;99880.34;1909028;75;21582;-69
2021/08/07 10:45:27;;;;;;;8.18;3.47;;;;;;;35.77;32.16;99878.05;1916809;75;21036;-68
2021/08/07 10:47:56;;;;;;;6.33;3.42;;;;;;;35.59;32.57;99883.98;1914972;75;21068;-64
2021/08/07 10:50:31;;;;;;;9.78;3.60;;;;;;;35.47;33.01;99877.73;1917024;75;21539;-64
2021/08/07 10:53:07;;;;;;;11.93;3.90;;;;;;;35.47;32.93;99880.47;1916350;75;21162;-64
2021/08/07 10:55:48;;;;;;;7.37;3.22;;;;;;;35.68;33.29;99875.66;1916755;75;21010;-63
2021/08/07 10:58:36;;;;;;;4.87;3.30;;;;;;;35.68;33.29;99875.66;1916664;75;21122;-62
2021/08/07 11:01:26;;;;;;;10.28;3.50;;;;;;;35.79;32.67;99884.11;1908257;75;21048;-63
2021/08/07 11:04:07;;;;;;;6.67;3.33;;;;;;;35.81;32.51;99892.35;1873736;76;21114;-63
2021/08/07 11:06:48;;;;;;;10.18;3.58;;;;;;;35.84;32.49;99888.28;1891012;75;21053;-64
2021/08/07 11:09:25;;;;;;;10.72;3.55;;;;;;;36.10;31.98;99887.64;1916712;75;21050;-67
2021/08/07 11:12:15;;;;;;;9.55;3.70;;;;;;;36.10;31.98;99887.64;1898046;75;21080;-67
2021/08/07 11:14:55;;;;;;;4.15;2.98;;;;;;;36.13;32.15;99880.81;1870531;76;21076;-64
2021/08/07 11:17:33;;;;;;;5.67;3.10;;;;;;;36.11;31.80;99897.50;1865514;76;21057;-67
2021/08/07 11:20:11;;;;;;;7.40;3.52;;;;;;;36.00;31.62;99888.83;1866206;77;21065;-65
2021/08/07 11:22:44;;;;;;;10.60;3.60;;;;;;;35.99;32.14;99911.84;1864555;77;21044;-66
2021/08/07 11:25:21;;;;;;;8.45;3.22;;;;;;;35.96;32.60;99902.73;1864295;77;21057;-64
2021/08/07 11:27:55;;;;;;;5.90;3.15;;;;;;;35.92;32.69;99904.31;1865892;77;21508;-63
2021/08/07 11:30:31;;;;;;;4.65;3.22;;;;;;;35.80;32.65;99900.81;1866191;76;21050;-62
2021/08/07 11:33:07;;;;;;;15.58;4.15;;;;;;;35.72;33.11;99906.98;1863971;77;21171;-62
2021/08/07 11:35:45;;;;;;;8.75;3.47;;;;;;;35.55;32.70;99897.34;1948715;73;21058;-62
2021/08/07 11:38:25;;;;;;;6.95;2.50;;;;;;;35.62;32.64;99906.78;1958181;73;21047;-62